Sturgeon Bay, WI (54235)

1:15 AM CDT on July 29, 2014 (GMT -0500)
Leif Everson Observatory (KWISTURG1) Elev 636 ft | 44.83 °N, 87.34 °W | Change Station

Current weather conditions updated 2 minutes ago

Overcast
Overcast
63.2 °F
Feels Like 63.2 °F
N
0.0
Wind Variable Wind from NW
Gusts 0.0 mph

Today is forecast to be Warmer than yesterday. Afternoon showers and thunderstorms.

Today
High -- | Low -- °F
--% Chance of Precip.
Yesterday
High -- | Low -- °F
Precip. -- in
5:32 AM 8:19 PM
Waxing Crescent, 5% visible
Pressure 30.00 in
Visibility 10.0 miles
Clouds Few 5000 ft
Overcast 7500 ft
Dew Point 58 °F
Humidity 82%
Rainfall 0.00 in
Snow Depth Not available.
UV 0.0 out of 12
Pollen 7.90 out of 12
Air Quality Not available.
Flu Activity Not available.
METAR KSUE 290555Z AUTO 30007KT 10SM FEW050 OVC075 18/13 A3000 RMK AO1 10180 20140 402100110 57010

More Conditions Fewer Conditions

Pressure 30.00 in
Visibility 10.0 miles
Clouds Few 5000 ft
Overcast 7500 ft
Dew Point 58 °F
Humidity 82%
Rainfall 0.00 in
Snow Depth Not available.
UV 0.0 out of 12
Pollen 7.90 out of 12
Air Quality Not available.
Flu Activity Not available.
METAR KSUE 290555Z AUTO 30007KT 10SM FEW050 OVC075 18/13 A3000 RMK AO1 10180 20140 402100110 57010

More Conditions Fewer Conditions

10-Day Weather Forecast

Almanac

Astronomy

Jul. 29, 2014 Rise Set
Actual Time 5:32 AM CDT 8:19 PM CDT
Civil Twilight 4:58 AM CDT 8:53 PM CDT
Nautical Twilight 4:14 AM CDT 9:36 PM CDT
Astronomical Twilight 3:24 AM CDT 10:25 PM CDT
Moon 8:17 AM CDT 9:21 PM CDT
Length of Visible Light 15h 55m
Length of Day
14h 47m
Tomorrow will be 2m 18s shorter.
Waxing Crescent, 5% of the Moon is Illuminated
Today
Waxing Crescent
Aug 3
First Quarter
Aug 10
Full
Aug 17
Last Quarter
Aug 25
New

Today's Extremes

State Highs State Lows

Community

WunderPhotos

Upload Photos

1,738,642 photos uploaded!

Nearby

Snow Depth

Station Depth Elevation
No new snow has been reported.

Earthquake Activity

City Distance Mag. Time & Date
No recent earthquake activity has been reported nearby.
Minimum magnitude displayed is 2.5.

Coastal Water Temperatures

Place Temperature
No Stations Reporting

Nearby Weather Stations

Station Location Temp. Dew Point Humidity Wind Precip. Elev Updated Type
Leif Everson Observatory, Sturgeon Bay, WI 63.2 °F 58 °F 82% NW  at  0.0 mph 0.00 in / hr 636 ft 1:12 AM CDT Normal
Egg Harbor WI, Egg Harbor, WI 62.2 °F 61 °F 95% NE  at  0.0 mph 0.00 in / hr 650 ft 1:14 AM CDT Normal
Tyco Fire Protection, Marinette, WI 62.1 °F 56 °F 81% WNW  at  2.0 mph 0.00 in / hr 617 ft 1:14 AM CDT Normal

Show More Stations Show Fewer Stations